Time;durP1;ratioP1;P1;durP2;ratioP2;P2;SDS_P1;SDS_P2;PMS_P1;PMS_P2;Temp;Humidity;BMP_temperature;BMP_pressure;BME280_temperature;BME280_humidity;BME280_pressure;Samples;Min_cycle;Max_cycle;Signal;HPM_P1;HPM_P2
2022/07/29 00:10:01;;;;;;;0.20;0.00;;;24.60;99.90;;;;;;25696106;23;20193;-69
2022/07/29 00:20:08;;;;;;;0.20;0.00;;;24.60;99.90;;;;;;25701877;23;20201;-70
2022/07/29 00:30:12;;;;;;;0.20;0.00;;;24.50;99.90;;;;;;25704339;23;20173;-69
2022/07/29 00:40:18;;;;;;;0.20;0.00;;;24.40;99.90;;;;;;25704068;23;20193;-69
2022/07/29 00:50:26;;;;;;;0.20;0.00;;;24.30;99.90;;;;;;25704011;23;20194;-68
2022/07/29 01:00:32;;;;;;;0.20;0.00;;;24.40;99.90;;;;;;25703428;23;20197;-69
2022/07/29 01:10:38;;;;;;;0.20;0.00;;;24.40;99.90;;;;;;25702965;23;20173;-68
2022/07/29 01:20:59;;;;;;;0.20;0.00;;;24.40;99.90;;;;;;25702494;23;20193;-68
2022/07/29 01:31:07;;;;;;;0.20;0.00;;;24.30;99.90;;;;;;25702567;23;20151;-68
2022/07/29 01:41:17;;;;;;;0.20;0.00;;;24.30;99.90;;;;;;25690087;23;20197;-69
2022/07/29 01:51:28;;;;;;;0.20;0.00;;;24.40;99.90;;;;;;25702302;23;20166;-69
2022/07/29 02:01:33;;;;;;;0.20;0.00;;;24.30;99.90;;;;;;25675475;23;20209;-67
2022/07/29 02:11:41;;;;;;;0.20;0.00;;;24.20;99.90;;;;;;25675409;23;20162;-66
2022/07/29 02:21:46;;;;;;;0.20;0.00;;;24.30;99.90;;;;;;25699693;23;20193;-68
2022/07/29 02:31:52;;;;;;;0.20;0.00;;;24.20;99.90;;;;;;25699476;23;20166;-68
2022/07/29 02:42:01;;;;;;;0.20;0.00;;;24.40;99.90;;;;;;25699210;23;20182;-67
2022/07/29 02:52:11;;;;;;;0.20;0.00;;;24.40;99.90;;;;;;25672656;23;20166;-67
2022/07/29 03:02:16;;;;;;;0.20;0.00;;;24.50;99.90;;;;;;25697728;23;20198;-67
2022/07/29 03:12:23;;;;;;;0.20;0.00;;;24.60;99.90;;;;;;25698344;23;20177;-68
2022/07/29 03:22:27;;;;;;;0.20;0.00;;;24.40;99.90;;;;;;25697814;23;20245;-68
2022/07/29 03:32:33;;;;;;;0.20;0.00;;;24.30;99.90;;;;;;25696767;23;20194;-68
2022/07/29 03:42:40;;;;;;;0.20;0.00;;;24.20;99.90;;;;;;25697814;23;20194;-68
2022/07/29 03:52:46;;;;;;;0.20;0.00;;;24.20;99.90;;;;;;25696529;23;20174;-67
2022/07/29 04:02:50;;;;;;;0.20;0.00;;;24.20;99.90;;;;;;25696230;23;20218;-68
2022/07/29 04:12:56;;;;;;;0.20;0.00;;;24.00;99.90;;;;;;25696920;23;20225;-68
2022/07/29 04:22:59;;;;;;;0.20;0.00;;;24.00;99.90;;;;;;25696013;23;20198;-71
2022/07/29 04:33:06;;;;;;;0.20;0.00;;;23.90;99.90;;;;;;25669966;23;20190;-67
2022/07/29 04:43:10;;;;;;;0.20;0.00;;;23.90;99.90;;;;;;25695434;23;20205;-68
2022/07/29 04:53:18;;;;;;;0.20;0.00;;;23.90;99.90;;;;;;25669728;23;20166;-68
2022/07/29 05:03:22;;;;;;;0.20;0.00;;;23.80;99.90;;;;;;25695179;23;20293;-69
2022/07/29 05:13:27;;;;;;;0.20;0.00;;;23.90;99.90;;;;;;25701932;23;20238;-67
2022/07/29 05:23:48;;;;;;;0.20;0.10;;;23.90;99.90;;;;;;25675343;23;20556;-68
2022/07/29 05:33:53;;;;;;;0.20;0.00;;;24.10;99.90;;;;;;25699749;23;20278;-67
2022/07/29 05:43:58;;;;;;;0.20;0.00;;;24.40;99.90;;;;;;25700340;23;20189;-68
2022/07/29 05:54:03;;;;;;;0.20;0.00;;;24.90;99.90;;;;;;25699448;23;20349;-68
2022/07/29 06:04:07;;;;;;;0.20;0.00;;;25.00;99.90;;;;;;25699157;23;20214;-68
2022/07/29 06:14:13;;;;;;;0.20;0.00;;;25.30;99.90;;;;;;25697808;23;20185;-68
2022/07/29 06:24:17;;;;;;;0.20;0.10;;;25.50;99.90;;;;;;25696666;23;20170;-68
2022/07/29 06:34:23;;;;;;;0.20;0.00;;;25.90;99.90;;;;;;25694731;23;20170;-69
2022/07/29 06:44:27;;;;;;;0.20;0.00;;;26.30;99.90;;;;;;25693727;23;20194;-69
2022/07/29 06:54:32;;;;;;;0.20;0.00;;;26.90;99.90;;;;;;25693521;23;20182;-68
2022/07/29 07:04:36;;;;;;;0.20;0.00;;;27.30;99.90;;;;;;25690680;23;20330;-68
2022/07/29 07:14:41;;;;;;;0.20;0.00;;;27.40;99.90;;;;;;25665341;23;20174;-69
2022/07/29 07:24:45;;;;;;;0.20;0.00;;;27.70;99.90;;;;;;25692037;23;20178;-69
2022/07/29 07:34:50;;;;;;;0.20;0.00;;;27.60;99.90;;;;;;25694072;23;20202;-68
2022/07/29 07:44:54;;;;;;;0.20;0.00;;;27.80;99.90;;;;;;25692483;23;20178;-67
2022/07/29 07:55:17;;;;;;;0.20;0.00;;;27.70;99.90;;;;;;25666319;23;20189;-68
2022/07/29 08:05:20;;;;;;;0.20;0.00;;;27.90;99.90;;;;;;25690410;23;20229;-68
2022/07/29 08:15:26;;;;;;;0.20;0.00;;;28.40;99.90;;;;;;25664660;23;20214;-67
2022/07/29 08:25:30;;;;;;;0.20;0.00;;;28.50;99.90;;;;;;25691544;23;20169;-69
2022/07/29 08:35:35;;;;;;;0.20;0.00;;;28.70;99.90;;;;;;25667855;23;20283;-69
2022/07/29 08:45:45;;;;;;;0.20;0.00;;;28.90;99.90;;;;;;25699173;23;20173;-68
2022/07/29 08:55:51;;;;;;;0.20;0.00;;;29.10;99.90;;;;;;25699523;23;20190;-68
2022/07/29 09:05:56;;;;;;;0.20;0.00;;;29.30;99.90;;;;;;25698902;23;20224;-69
2022/07/29 09:16:01;;;;;;;0.20;0.00;;;29.40;99.90;;;;;;25698440;23;20213;-68
2022/07/29 09:26:11;;;;;;;0.20;0.00;;;29.40;99.90;;;;;;25698537;23;20169;-69
2022/07/29 09:36:18;;;;;;;0.20;0.00;;;29.30;99.90;;;;;;25695608;23;20224;-67
2022/07/29 09:46:21;;;;;;;0.20;0.00;;;28.90;99.90;;;;;;25695071;23;20165;-67
2022/07/29 09:56:42;;;;;;;0.20;0.00;;;29.80;99.90;;;;;;25696334;23;20200;-64
2022/07/29 10:07:00;;;;;;;0.20;0.00;;;29.90;99.90;;;;;;25695652;23;20232;-68
2022/07/29 10:17:10;;;;;;;0.20;0.00;;;30.20;99.90;;;;;;25694104;23;20182;-69
2022/07/29 10:27:14;;;;;;;0.20;0.00;;;30.20;99.90;;;;;;25666205;23;20205;-69
2022/07/29 10:37:29;;;;;;;0.20;0.00;;;29.70;99.90;;;;;;25692995;23;20185;-68
2022/07/29 10:47:38;;;;;;;0.20;0.00;;;30.00;99.90;;;;;;25694831;23;20162;-68
2022/07/29 10:58:14;;;;;;;0.20;0.00;;;29.90;99.90;;;;;;25693295;23;20205;-69
2022/07/29 11:08:25;;;;;;;0.20;0.00;;;30.20;99.90;;;;;;25691352;23;20201;-69
2022/07/29 11:19:22;;;;;;;0.20;0.00;;;30.80;99.90;;;;;;25665053;23;20212;-70
2022/07/29 11:29:33;;;;;;;0.20;0.00;;;31.10;99.90;;;;;;25689939;23;20157;-69
2022/07/29 11:39:46;;;;;;;0.20;0.03;;;30.50;99.90;;;;;;25690982;23;20189;-68
2022/07/29 11:49:52;;;;;;;0.20;0.00;;;30.30;99.90;;;;;;25663950;23;20177;-67
2022/07/29 11:59:59;;;;;;;0.20;0.00;;;30.40;99.90;;;;;;25689073;23;20215;-68
2022/07/29 12:10:12;;;;;;;0.20;0.00;;;31.10;99.90;;;;;;25664845;23;20177;-69
2022/07/29 12:20:34;;;;;;;0.20;0.00;;;32.00;99.90;;;;;;25689604;23;20240;-67
2022/07/29 12:30:44;;;;;;;0.20;0.00;;;32.10;99.90;;;;;;25691266;23;20167;-68
2022/07/29 12:40:53;;;;;;;0.20;0.00;;;32.80;99.90;;;;;;25686456;23;20208;-68
2022/07/29 12:51:01;;;;;;;0.20;0.00;;;31.50;99.90;;;;;;25658299;23;20166;-68
2022/07/29 13:01:08;;;;;;;0.20;0.00;;;32.60;99.90;;;;;;25664835;23;20206;-68
2022/07/29 13:11:30;;;;;;;0.20;0.00;;;33.30;99.90;;;;;;25679419;23;20166;-68
2022/07/29 13:21:38;;;;;;;0.20;0.00;;;33.70;99.90;;;;;;25690784;23;20209;-69
2022/07/29 13:31:42;;;;;;;0.20;0.00;;;32.70;99.90;;;;;;25670510;23;20206;-69
2022/07/29 13:41:47;;;;;;;0.20;0.00;;;31.90;99.90;;;;;;25696440;23;20213;-68
2022/07/29 13:51:51;;;;;;;0.20;0.00;;;30.60;99.90;;;;;;25670199;23;20185;-69
2022/07/29 14:01:57;;;;;;;0.20;0.00;;;29.90;99.90;;;;;;25692573;23;20256;-68
2022/07/29 14:12:02;;;;;;;0.20;0.00;;;29.80;99.90;;;;;;25691423;23;20170;-68
2022/07/29 14:22:08;;;;;;;0.20;0.00;;;30.40;99.90;;;;;;25665500;23;20345;-68
2022/07/29 14:32:14;;;;;;;0.20;0.00;;;29.80;99.90;;;;;;25679302;23;20190;-67
2022/07/29 14:42:19;;;;;;;0.20;0.00;;;30.40;99.90;;;;;;25688208;23;20190;-68
2022/07/29 14:52:23;;;;;;;0.20;0.00;;;30.10;99.90;;;;;;25689294;23;20259;-67
2022/07/29 15:02:29;;;;;;;0.20;0.00;;;31.50;99.90;;;;;;25661695;23;20261;-67
2022/07/29 15:12:52;;;;;;;0.20;0.00;;;31.80;99.90;;;;;;25686596;23;20170;-69
2022/07/29 15:22:58;;;;;;;0.20;0.00;;;32.40;99.90;;;;;;25685094;23;20202;-67
2022/07/29 15:33:02;;;;;;;0.20;0.00;;;33.70;99.90;;;;;;25661608;23;20186;-70
2022/07/29 15:43:08;;;;;;;0.20;0.00;;;30.70;99.90;;;;;;25680634;23;20198;-69
2022/07/29 15:53:12;;;;;;;0.20;0.00;;;29.00;99.90;;;;;;25635894;23;20169;-67
2022/07/29 16:03:18;;;;;;;0.20;0.00;;;28.90;99.90;;;;;;25686047;23;20218;-68
2022/07/29 16:13:22;;;;;;;0.20;0.00;;;28.20;99.90;;;;;;25660570;23;20257;-69
2022/07/29 16:23:27;;;;;;;0.20;0.00;;;23.50;99.90;;;;;;25684885;23;20194;-67
2022/07/29 16:33:31;;;;;;;0.20;0.00;;;22.80;99.90;;;;;;25685105;23;20173;-68
2022/07/29 16:43:56;;;;;;;0.20;0.00;;;23.10;99.90;;;;;;25682629;23;20186;-68
2022/07/29 16:54:00;;;;;;;0.20;0.00;;;24.20;99.90;;;;;;25683718;23;20255;-67
2022/07/29 17:04:06;;;;;;;0.20;0.00;;;25.50;99.90;;;;;;25692203;23;20210;-70
2022/07/29 17:14:10;;;;;;;0.20;0.00;;;26.80;99.90;;;;;;25670992;23;20185;-69
2022/07/29 17:24:15;;;;;;;0.20;0.00;;;27.70;99.90;;;;;;25685005;23;20178;-68
2022/07/29 17:34:19;;;;;;;0.35;0.35;;;29.80;99.90;;;;;;25670501;23;20272;-69
2022/07/29 17:44:24;;;;;;;0.20;0.00;;;30.60;99.90;;;;;;25696268;23;20266;-69
2022/07/29 17:54:28;;;;;;;0.20;0.00;;;28.80;99.90;;;;;;25696227;23;20182;-69
2022/07/29 18:04:33;;;;;;;0.20;0.00;;;27.00;99.90;;;;;;25694979;23;20254;-69
2022/07/29 18:14:37;;;;;;;0.20;0.00;;;26.70;99.90;;;;;;25695537;23;20194;-70
2022/07/29 18:24:42;;;;;;;0.20;0.00;;;26.40;99.90;;;;;;25694368;23;20190;-69
2022/07/29 18:34:46;;;;;;;0.20;0.00;;;26.30;99.90;;;;;;25694406;23;20264;-70
2022/07/29 18:44:51;;;;;;;0.20;0.00;;;26.10;99.90;;;;;;25694065;23;20213;-69
2022/07/29 18:54:56;;;;;;;0.20;0.00;;;25.90;99.90;;;;;;25692801;23;20200;-70
2022/07/29 19:05:01;;;;;;;0.20;0.00;;;26.00;99.90;;;;;;25688522;23;20228;-69
2022/07/29 19:15:06;;;;;;;0.20;0.00;;;25.80;99.90;;;;;;25684125;23;20233;-69
2022/07/29 19:25:12;;;;;;;0.20;0.00;;;25.40;99.90;;;;;;25676579;23;20249;-71
2022/07/29 19:35:31;;;;;;;0.20;0.00;;;25.40;99.90;;;;;;25653870;23;20177;-68
2022/07/29 19:45:36;;;;;;;0.20;0.08;;;25.40;99.90;;;;;;25692312;23;20233;-69
2022/07/29 19:55:41;;;;;;;0.20;0.00;;;25.60;99.90;;;;;;25665571;23;20173;-69
2022/07/29 20:05:49;;;;;;;0.20;0.00;;;25.40;99.90;;;;;;25665248;23;20238;-70
2022/07/29 20:15:53;;;;;;;0.20;0.00;;;25.30;99.90;;;;;;25693150;23;20186;-69
2022/07/29 20:25:58;;;;;;;0.20;0.00;;;24.90;99.90;;;;;;25692733;23;20190;-69
2022/07/29 20:36:02;;;;;;;0.20;0.00;;;24.90;99.90;;;;;;25673138;23;20329;-69
2022/07/29 20:46:07;;;;;;;0.20;0.00;;;24.90;99.90;;;;;;25694010;23;20237;-69
2022/07/29 20:56:12;;;;;;;0.20;0.00;;;24.80;99.90;;;;;;25669154;23;20182;-70
2022/07/29 21:06:17;;;;;;;0.20;0.00;;;24.70;99.90;;;;;;25682104;23;20245;-70
2022/07/29 21:16:24;;;;;;;0.20;0.00;;;24.40;99.90;;;;;;25692643;23;20170;-69
2022/07/29 21:26:29;;;;;;;0.20;0.00;;;24.00;99.90;;;;;;25691701;23;20190;-66
2022/07/29 21:36:33;;;;;;;0.20;0.00;;;23.90;99.90;;;;;;25696647;23;20173;-68
2022/07/29 21:46:53;;;;;;;0.20;0.00;;;23.90;99.90;;;;;;25697525;23;20170;-66
2022/07/29 21:56:57;;;;;;;0.20;0.00;;;23.60;99.90;;;;;;25699819;23;20168;-70
2022/07/29 22:07:04;;;;;;;0.20;0.00;;;23.50;99.90;;;;;;25694800;23;20198;-70
2022/07/29 22:17:08;;;;;;;0.20;0.00;;;23.40;99.90;;;;;;25646675;23;20205;-70
2022/07/29 22:27:14;;;;;;;0.20;0.00;;;23.80;99.90;;;;;;25697556;23;20181;-70
2022/07/29 22:37:17;;;;;;;0.20;0.00;;;23.80;99.90;;;;;;25696962;23;20256;-70
2022/07/29 22:47:23;;;;;;;0.20;0.00;;;23.80;99.90;;;;;;25696474;23;20178;-70
2022/07/29 22:57:46;;;;;;;0.20;0.00;;;23.90;99.90;;;;;;25695473;23;20182;-70
2022/07/29 23:07:52;;;;;;;0.20;0.00;;;24.00;99.90;;;;;;25695834;23;20237;-69
2022/07/29 23:17:55;;;;;;;0.20;0.00;;;24.00;99.90;;;;;;25694145;23;20282;-70
2022/07/29 23:28:01;;;;;;;0.20;0.00;;;23.70;99.90;;;;;;25696009;23;20185;-69
2022/07/29 23:38:05;;;;;;;0.20;0.00;;;23.50;99.90;;;;;;25694066;23;20213;-70
2022/07/29 23:48:10;;;;;;;0.20;0.00;;;23.30;99.90;;;;;;25694981;23;20174;-70
2022/07/29 23:58:14;;;;;;;0.20;0.00;;;23.20;99.90;;;;;;25682201;23;20193;-70
